sensor_id;sensor_type;location;lat;lon;timestamp;temperature;humidity
5226;DHT22;2632;51.666;7.146;2023-03-11T00:00:14;1.70;99.90
5226;DHT22;2632;51.666;7.146;2023-03-11T00:02:44;1.70;99.90
5226;DHT22;2632;51.666;7.146;2023-03-11T00:05:19;1.70;99.90
5226;DHT22;2632;51.666;7.146;2023-03-11T00:07:46;1.70;99.90
5226;DHT22;2632;51.666;7.146;2023-03-11T00:10:19;1.70;99.90
5226;DHT22;2632;51.666;7.146;2023-03-11T00:12:46;1.80;99.90
5226;DHT22;2632;51.666;7.146;2023-03-11T00:15:13;2.40;99.90
5226;DHT22;2632;51.666;7.146;2023-03-11T00:17:40;1.70;99.90
5226;DHT22;2632;51.666;7.146;2023-03-11T00:20:13;1.70;99.90
5226;DHT22;2632;51.666;7.146;2023-03-11T00:22:40;1.70;99.90
5226;DHT22;2632;51.666;7.146;2023-03-11T00:25:09;1.70;99.90
5226;DHT22;2632;51.666;7.146;2023-03-11T00:27:36;1.70;99.90
5226;DHT22;2632;51.666;7.146;2023-03-11T00:30:04;1.70;99.90
5226;DHT22;2632;51.666;7.146;2023-03-11T00:32:30;1.70;99.90
5226;DHT22;2632;51.666;7.146;2023-03-11T00:34:57;1.70;99.90
5226;DHT22;2632;51.666;7.146;2023-03-11T00:37:24;1.70;99.90
5226;DHT22;2632;51.666;7.146;2023-03-11T00:39:50;1.70;99.90
5226;DHT22;2632;51.666;7.146;2023-03-11T00:42:17;1.70;99.90
5226;DHT22;2632;51.666;7.146;2023-03-11T00:44:43;1.80;99.90
5226;DHT22;2632;51.666;7.146;2023-03-11T00:47:10;1.70;99.90
5226;DHT22;2632;51.666;7.146;2023-03-11T00:49:37;1.60;99.90
5226;DHT22;2632;51.666;7.146;2023-03-11T00:52:04;1.70;99.90
5226;DHT22;2632;51.666;7.146;2023-03-11T00:54:31;1.60;99.90
5226;DHT22;2632;51.666;7.146;2023-03-11T00:56:58;1.70;99.90
5226;DHT22;2632;51.666;7.146;2023-03-11T00:59:24;1.70;99.90
5226;DHT22;2632;51.666;7.146;2023-03-11T01:01:51;1.70;99.90
5226;DHT22;2632;51.666;7.146;2023-03-11T01:04:17;1.70;99.90
5226;DHT22;2632;51.666;7.146;2023-03-11T01:06:44;1.70;99.90
5226;DHT22;2632;51.666;7.146;2023-03-11T01:09:11;1.70;99.90
5226;DHT22;2632;51.666;7.146;2023-03-11T01:11:38;1.70;99.90
5226;DHT22;2632;51.666;7.146;2023-03-11T01:14:04;1.70;99.90
5226;DHT22;2632;51.666;7.146;2023-03-11T01:16:31;1.80;99.90
5226;DHT22;2632;51.666;7.146;2023-03-11T01:18:58;1.80;99.90
5226;DHT22;2632;51.666;7.146;2023-03-11T01:21:24;1.70;99.90
5226;DHT22;2632;51.666;7.146;2023-03-11T01:23:51;1.70;99.90
5226;DHT22;2632;51.666;7.146;2023-03-11T01:26:18;1.80;99.90
5226;DHT22;2632;51.666;7.146;2023-03-11T01:28:44;1.80;99.90
5226;DHT22;2632;51.666;7.146;2023-03-11T01:31:11;1.80;99.90
5226;DHT22;2632;51.666;7.146;2023-03-11T01:33:38;1.80;99.90
5226;DHT22;2632;51.666;7.146;2023-03-11T01:36:05;1.80;99.90
5226;DHT22;2632;51.666;7.146;2023-03-11T01:38:32;1.80;99.90
5226;DHT22;2632;51.666;7.146;2023-03-11T01:40:59;1.70;99.90
5226;DHT22;2632;51.666;7.146;2023-03-11T01:43:55;1.70;99.90
5226;DHT22;2632;51.666;7.146;2023-03-11T01:46:27;1.70;99.90
5226;DHT22;2632;51.666;7.146;2023-03-11T01:48:58;1.70;99.90
5226;DHT22;2632;51.666;7.146;2023-03-11T01:54:02;1.70;99.90
5226;DHT22;2632;51.666;7.146;2023-03-11T01:56:30;1.70;99.90
5226;DHT22;2632;51.666;7.146;2023-03-11T01:58:58;1.70;99.90
5226;DHT22;2632;51.666;7.146;2023-03-11T02:01:25;1.70;99.90
5226;DHT22;2632;51.666;7.146;2023-03-11T02:03:51;1.70;99.90
5226;DHT22;2632;51.666;7.146;2023-03-11T02:06:21;1.70;99.90
5226;DHT22;2632;51.666;7.146;2023-03-11T02:08:49;1.70;99.90
5226;DHT22;2632;51.666;7.146;2023-03-11T02:11:20;1.70;99.90
5226;DHT22;2632;51.666;7.146;2023-03-11T02:13:48;1.60;99.90
5226;DHT22;2632;51.666;7.146;2023-03-11T02:16:15;1.60;99.90
5226;DHT22;2632;51.666;7.146;2023-03-11T02:18:42;1.70;99.90
5226;DHT22;2632;51.666;7.146;2023-03-11T02:21:25;1.70;99.90
5226;DHT22;2632;51.666;7.146;2023-03-11T02:24:03;1.70;99.90
5226;DHT22;2632;51.666;7.146;2023-03-11T02:27:02;1.70;99.90
5226;DHT22;2632;51.666;7.146;2023-03-11T02:29:32;1.60;99.90
5226;DHT22;2632;51.666;7.146;2023-03-11T02:32:02;1.50;99.90
5226;DHT22;2632;51.666;7.146;2023-03-11T02:34:31;1.40;99.90
5226;DHT22;2632;51.666;7.146;2023-03-11T02:36:59;1.40;99.90
5226;DHT22;2632;51.666;7.146;2023-03-11T02:39:32;1.40;99.90
5226;DHT22;2632;51.666;7.146;2023-03-11T02:42:06;1.30;99.90
5226;DHT22;2632;51.666;7.146;2023-03-11T02:44:33;1.30;99.90
5226;DHT22;2632;51.666;7.146;2023-03-11T02:47:00;1.20;99.90
5226;DHT22;2632;51.666;7.146;2023-03-11T02:49:28;1.20;99.90
5226;DHT22;2632;51.666;7.146;2023-03-11T02:51:55;1.30;99.90
5226;DHT22;2632;51.666;7.146;2023-03-11T02:54:22;1.20;99.90
5226;DHT22;2632;51.666;7.146;2023-03-11T02:56:48;1.20;99.90
5226;DHT22;2632;51.666;7.146;2023-03-11T02:59:15;1.20;99.90
5226;DHT22;2632;51.666;7.146;2023-03-11T03:01:42;1.20;99.90
5226;DHT22;2632;51.666;7.146;2023-03-11T03:04:08;1.20;99.90
5226;DHT22;2632;51.666;7.146;2023-03-11T03:06:35;1.30;99.90
5226;DHT22;2632;51.666;7.146;2023-03-11T03:09:02;1.30;99.90
5226;DHT22;2632;51.666;7.146;2023-03-11T03:11:29;1.30;99.90
5226;DHT22;2632;51.666;7.146;2023-03-11T03:13:56;1.30;99.90
5226;DHT22;2632;51.666;7.146;2023-03-11T03:16:22;1.40;99.90
5226;DHT22;2632;51.666;7.146;2023-03-11T03:18:49;1.40;99.90
5226;DHT22;2632;51.666;7.146;2023-03-11T03:21:17;1.40;99.90
5226;DHT22;2632;51.666;7.146;2023-03-11T03:23:43;1.40;99.90
5226;DHT22;2632;51.666;7.146;2023-03-11T03:26:12;1.40;99.90
5226;DHT22;2632;51.666;7.146;2023-03-11T03:28:39;1.40;99.90
5226;DHT22;2632;51.666;7.146;2023-03-11T03:31:07;1.50;99.90
5226;DHT22;2632;51.666;7.146;2023-03-11T03:33:34;1.40;99.90
5226;DHT22;2632;51.666;7.146;2023-03-11T03:36:08;1.40;99.90
5226;DHT22;2632;51.666;7.146;2023-03-11T03:38:35;1.40;99.90
5226;DHT22;2632;51.666;7.146;2023-03-11T03:41:02;1.40;99.90
5226;DHT22;2632;51.666;7.146;2023-03-11T03:43:29;1.40;99.90
5226;DHT22;2632;51.666;7.146;2023-03-11T03:46:03;1.40;99.90
5226;DHT22;2632;51.666;7.146;2023-03-11T03:48:30;1.40;99.90
5226;DHT22;2632;51.666;7.146;2023-03-11T03:51:05;1.40;99.90
5226;DHT22;2632;51.666;7.146;2023-03-11T03:53:36;1.40;99.90
5226;DHT22;2632;51.666;7.146;2023-03-11T03:56:04;1.40;99.90
5226;DHT22;2632;51.666;7.146;2023-03-11T03:58:31;1.40;99.90
5226;DHT22;2632;51.666;7.146;2023-03-11T04:00:58;1.30;99.90
5226;DHT22;2632;51.666;7.146;2023-03-11T04:03:26;1.30;99.90
5226;DHT22;2632;51.666;7.146;2023-03-11T04:05:53;1.30;99.90
5226;DHT22;2632;51.666;7.146;2023-03-11T04:08:19;1.30;99.90
5226;DHT22;2632;51.666;7.146;2023-03-11T04:10:56;1.30;99.90
5226;DHT22;2632;51.666;7.146;2023-03-11T04:13:22;1.30;99.90
5226;DHT22;2632;51.666;7.146;2023-03-11T04:15:49;1.40;99.90
5226;DHT22;2632;51.666;7.146;2023-03-11T04:18:16;1.30;99.90
5226;DHT22;2632;51.666;7.146;2023-03-11T04:20:42;1.30;99.90
5226;DHT22;2632;51.666;7.146;2023-03-11T04:23:09;1.30;99.90
5226;DHT22;2632;51.666;7.146;2023-03-11T04:25:36;1.30;99.90
5226;DHT22;2632;51.666;7.146;2023-03-11T04:28:02;1.20;99.90
5226;DHT22;2632;51.666;7.146;2023-03-11T04:30:29;1.30;99.90
5226;DHT22;2632;51.666;7.146;2023-03-11T04:32:56;1.30;99.90
5226;DHT22;2632;51.666;7.146;2023-03-11T04:35:22;1.30;99.90
5226;DHT22;2632;51.666;7.146;2023-03-11T04:37:49;1.20;99.90
5226;DHT22;2632;51.666;7.146;2023-03-11T04:40:16;1.20;99.90
5226;DHT22;2632;51.666;7.146;2023-03-11T04:42:43;1.20;99.90
5226;DHT22;2632;51.666;7.146;2023-03-11T04:45:09;1.30;99.90
5226;DHT22;2632;51.666;7.146;2023-03-11T04:47:36;1.30;99.90
5226;DHT22;2632;51.666;7.146;2023-03-11T04:50:03;1.20;99.90
5226;DHT22;2632;51.666;7.146;2023-03-11T04:52:30;1.10;99.90
5226;DHT22;2632;51.666;7.146;2023-03-11T04:54:56;1.10;99.90
5226;DHT22;2632;51.666;7.146;2023-03-11T04:57:23;2.80;99.90
5226;DHT22;2632;51.666;7.146;2023-03-11T04:59:50;1.00;99.90
5226;DHT22;2632;51.666;7.146;2023-03-11T05:02:16;1.00;99.90
5226;DHT22;2632;51.666;7.146;2023-03-11T05:04:43;1.00;99.90
5226;DHT22;2632;51.666;7.146;2023-03-11T05:07:10;1.00;99.90
5226;DHT22;2632;51.666;7.146;2023-03-11T05:09:37;1.00;99.90
5226;DHT22;2632;51.666;7.146;2023-03-11T05:12:04;1.00;99.90
5226;DHT22;2632;51.666;7.146;2023-03-11T05:14:31;1.00;99.90
5226;DHT22;2632;51.666;7.146;2023-03-11T05:16:58;1.00;99.90
5226;DHT22;2632;51.666;7.146;2023-03-11T05:19:24;1.00;99.90
5226;DHT22;2632;51.666;7.146;2023-03-11T05:21:57;1.00;99.90
5226;DHT22;2632;51.666;7.146;2023-03-11T05:24:24;1.00;99.90
5226;DHT22;2632;51.666;7.146;2023-03-11T05:26:51;1.00;99.90
5226;DHT22;2632;51.666;7.146;2023-03-11T05:29:18;0.90;99.90
5226;DHT22;2632;51.666;7.146;2023-03-11T05:31:45;1.00;99.90
5226;DHT22;2632;51.666;7.146;2023-03-11T05:34:13;1.00;99.90
5226;DHT22;2632;51.666;7.146;2023-03-11T05:36:40;1.00;99.90
5226;DHT22;2632;51.666;7.146;2023-03-11T05:39:07;1.00;99.90
5226;DHT22;2632;51.666;7.146;2023-03-11T05:41:33;1.00;99.90
5226;DHT22;2632;51.666;7.146;2023-03-11T05:44:00;1.00;99.90
5226;DHT22;2632;51.666;7.146;2023-03-11T05:46:27;1.10;99.90
5226;DHT22;2632;51.666;7.146;2023-03-11T05:48:53;1.00;99.90
5226;DHT22;2632;51.666;7.146;2023-03-11T05:51:20;1.00;99.90
5226;DHT22;2632;51.666;7.146;2023-03-11T05:53:47;1.00;99.90
5226;DHT22;2632;51.666;7.146;2023-03-11T05:56:15;1.30;99.90
5226;DHT22;2632;51.666;7.146;2023-03-11T05:58:41;1.10;99.90
5226;DHT22;2632;51.666;7.146;2023-03-11T06:01:13;1.00;99.90
5226;DHT22;2632;51.666;7.146;2023-03-11T06:03:41;1.00;99.90
5226;DHT22;2632;51.666;7.146;2023-03-11T06:06:10;1.00;99.90
5226;DHT22;2632;51.666;7.146;2023-03-11T06:08:37;1.10;99.90
5226;DHT22;2632;51.666;7.146;2023-03-11T06:11:06;1.00;99.90
5226;DHT22;2632;51.666;7.146;2023-03-11T06:13:34;1.10;99.90
5226;DHT22;2632;51.666;7.146;2023-03-11T06:16:01;1.00;99.90
5226;DHT22;2632;51.666;7.146;2023-03-11T06:18:28;1.00;99.90
5226;DHT22;2632;51.666;7.146;2023-03-11T06:20:57;1.10;99.90
5226;DHT22;2632;51.666;7.146;2023-03-11T06:23:24;1.10;99.90
5226;DHT22;2632;51.666;7.146;2023-03-11T06:25:58;1.10;99.90
5226;DHT22;2632;51.666;7.146;2023-03-11T06:28:25;1.00;99.90
5226;DHT22;2632;51.666;7.146;2023-03-11T06:30:52;1.10;99.90
5226;DHT22;2632;51.666;7.146;2023-03-11T06:33:22;1.10;99.90
5226;DHT22;2632;51.666;7.146;2023-03-11T06:35:57;1.40;99.90
5226;DHT22;2632;51.666;7.146;2023-03-11T06:38:24;1.40;99.90
5226;DHT22;2632;51.666;7.146;2023-03-11T06:40:51;1.20;99.90
5226;DHT22;2632;51.666;7.146;2023-03-11T06:43:18;1.20;99.90
5226;DHT22;2632;51.666;7.146;2023-03-11T06:45:45;1.30;99.90
5226;DHT22;2632;51.666;7.146;2023-03-11T06:48:11;1.50;99.90
5226;DHT22;2632;51.666;7.146;2023-03-11T06:50:38;1.50;99.90
5226;DHT22;2632;51.666;7.146;2023-03-11T06:53:05;1.60;99.90
5226;DHT22;2632;51.666;7.146;2023-03-11T06:55:33;1.60;99.90
5226;DHT22;2632;51.666;7.146;2023-03-11T06:58:00;1.80;99.90
5226;DHT22;2632;51.666;7.146;2023-03-11T07:00:27;1.90;99.90
5226;DHT22;2632;51.666;7.146;2023-03-11T07:02:56;2.10;99.90
5226;DHT22;2632;51.666;7.146;2023-03-11T07:05:23;2.50;99.90
5226;DHT22;2632;51.666;7.146;2023-03-11T07:07:52;3.70;99.90
5226;DHT22;2632;51.666;7.146;2023-03-11T07:10:20;5.10;99.90
5226;DHT22;2632;51.666;7.146;2023-03-11T07:12:46;5.80;99.90
5226;DHT22;2632;51.666;7.146;2023-03-11T07:15:13;6.80;99.90
5226;DHT22;2632;51.666;7.146;2023-03-11T07:17:39;8.00;97.50
5226;DHT22;2632;51.666;7.146;2023-03-11T07:20:06;7.20;97.20
5226;DHT22;2632;51.666;7.146;2023-03-11T07:22:33;7.90;96.40
5226;DHT22;2632;51.666;7.146;2023-03-11T07:25:00;7.30;96.30
5226;DHT22;2632;51.666;7.146;2023-03-11T07:27:27;6.50;99.20
5226;DHT22;2632;51.666;7.146;2023-03-11T07:29:56;6.40;99.90
5226;DHT22;2632;51.666;7.146;2023-03-11T07:32:23;8.20;96.50
5226;DHT22;2632;51.666;7.146;2023-03-11T07:34:50;9.50;92.30
5226;DHT22;2632;51.666;7.146;2023-03-11T07:37:16;12.70;71.50
5226;DHT22;2632;51.666;7.146;2023-03-11T07:39:43;13.50;60.20
5226;DHT22;2632;51.666;7.146;2023-03-11T07:42:10;13.00;60.50
5226;DHT22;2632;51.666;7.146;2023-03-11T07:44:36;9.80;68.60
5226;DHT22;2632;51.666;7.146;2023-03-11T07:47:05;8.10;90.80
5226;DHT22;2632;51.666;7.146;2023-03-11T07:49:32;7.60;95.00
5226;DHT22;2632;51.666;7.146;2023-03-11T07:51:59;6.90;96.10
5226;DHT22;2632;51.666;7.146;2023-03-11T07:54:26;7.20;95.80
5226;DHT22;2632;51.666;7.146;2023-03-11T07:56:52;7.90;95.70
5226;DHT22;2632;51.666;7.146;2023-03-11T07:59:19;13.00;74.80
5226;DHT22;2632;51.666;7.146;2023-03-11T08:01:45;18.90;48.00
5226;DHT22;2632;51.666;7.146;2023-03-11T08:04:14;21.60;44.60
5226;DHT22;2632;51.666;7.146;2023-03-11T08:06:44;23.60;33.80
5226;DHT22;2632;51.666;7.146;2023-03-11T08:09:12;25.90;31.50
5226;DHT22;2632;51.666;7.146;2023-03-11T08:11:38;26.10;29.60
5226;DHT22;2632;51.666;7.146;2023-03-11T08:14:06;26.10;28.70
5226;DHT22;2632;51.666;7.146;2023-03-11T08:16:33;25.90;28.60
5226;DHT22;2632;51.666;7.146;2023-03-11T08:18:59;26.60;29.00
5226;DHT22;2632;51.666;7.146;2023-03-11T08:21:28;27.30;27.30
5226;DHT22;2632;51.666;7.146;2023-03-11T08:23:58;28.00;28.20
5226;DHT22;2632;51.666;7.146;2023-03-11T08:26:26;28.20;26.80
5226;DHT22;2632;51.666;7.146;2023-03-11T08:28:54;27.80;27.20
5226;DHT22;2632;51.666;7.146;2023-03-11T08:31:26;28.40;26.80
5226;DHT22;2632;51.666;7.146;2023-03-11T08:33:56;28.40;26.50
5226;DHT22;2632;51.666;7.146;2023-03-11T08:36:23;27.50;27.70
5226;DHT22;2632;51.666;7.146;2023-03-11T08:38:50;26.70;28.10
5226;DHT22;2632;51.666;7.146;2023-03-11T08:41:16;27.10;28.00
5226;DHT22;2632;51.666;7.146;2023-03-11T08:43:43;26.80;27.10
5226;DHT22;2632;51.666;7.146;2023-03-11T08:46:32;26.50;26.80
5226;DHT22;2632;51.666;7.146;2023-03-11T08:49:00;26.10;27.30
5226;DHT22;2632;51.666;7.146;2023-03-11T08:51:28;25.90;26.90
5226;DHT22;2632;51.666;7.146;2023-03-11T08:53:55;25.90;27.50
5226;DHT22;2632;51.666;7.146;2023-03-11T08:56:22;26.60;25.90
5226;DHT22;2632;51.666;7.146;2023-03-11T08:58:49;26.90;26.10
5226;DHT22;2632;51.666;7.146;2023-03-11T09:01:16;25.40;27.10
5226;DHT22;2632;51.666;7.146;2023-03-11T09:03:43;26.40;27.90
5226;DHT22;2632;51.666;7.146;2023-03-11T09:06:12;26.50;27.00
5226;DHT22;2632;51.666;7.146;2023-03-11T09:08:42;26.70;27.60
5226;DHT22;2632;51.666;7.146;2023-03-11T09:11:09;26.50;26.50
5226;DHT22;2632;51.666;7.146;2023-03-11T09:13:39;27.40;26.30
5226;DHT22;2632;51.666;7.146;2023-03-11T09:16:14;28.10;26.50
5226;DHT22;2632;51.666;7.146;2023-03-11T09:18:41;27.80;25.80
5226;DHT22;2632;51.666;7.146;2023-03-11T09:21:08;28.70;25.80
5226;DHT22;2632;51.666;7.146;2023-03-11T09:23:35;27.30;25.20
5226;DHT22;2632;51.666;7.146;2023-03-11T09:26:02;27.30;25.50
5226;DHT22;2632;51.666;7.146;2023-03-11T09:28:29;26.90;25.40
5226;DHT22;2632;51.666;7.146;2023-03-11T09:30:56;27.00;26.60
5226;DHT22;2632;51.666;7.146;2023-03-11T09:33:23;27.40;25.00
5226;DHT22;2632;51.666;7.146;2023-03-11T09:35:50;28.60;24.80
5226;DHT22;2632;51.666;7.146;2023-03-11T09:38:17;28.40;25.20
5226;DHT22;2632;51.666;7.146;2023-03-11T09:52:09;30.50;23.50
5226;DHT22;2632;51.666;7.146;2023-03-11T09:54:43;30.30;23.70
5226;DHT22;2632;51.666;7.146;2023-03-11T09:57:18;29.40;24.00
5226;DHT22;2632;51.666;7.146;2023-03-11T09:59:46;29.60;23.70
5226;DHT22;2632;51.666;7.146;2023-03-11T10:02:18;26.20;25.00
5226;DHT22;2632;51.666;7.146;2023-03-11T10:04:54;28.20;24.80
5226;DHT22;2632;51.666;7.146;2023-03-11T10:07:35;28.80;25.70
5226;DHT22;2632;51.666;7.146;2023-03-11T10:10:03;28.30;24.70
5226;DHT22;2632;51.666;7.146;2023-03-11T10:12:46;27.40;24.00
5226;DHT22;2632;51.666;7.146;2023-03-11T10:15:20;27.80;24.30
5226;DHT22;2632;51.666;7.146;2023-03-11T10:24:00;26.90;25.50
5226;DHT22;2632;51.666;7.146;2023-03-11T10:26:36;24.80;26.40
5226;DHT22;2632;51.666;7.146;2023-03-11T10:29:26;25.50;26.50
5226;DHT22;2632;51.666;7.146;2023-03-11T10:32:01;26.20;25.20
5226;DHT22;2632;51.666;7.146;2023-03-11T10:34:37;27.50;25.00
5226;DHT22;2632;51.666;7.146;2023-03-11T10:37:15;23.10;26.60
5226;DHT22;2632;51.666;7.146;2023-03-11T10:39:45;25.00;27.40
5226;DHT22;2632;51.666;7.146;2023-03-11T10:42:23;26.40;26.20
5226;DHT22;2632;51.666;7.146;2023-03-11T10:44:50;24.70;25.30
5226;DHT22;2632;51.666;7.146;2023-03-11T10:47:20;23.90;27.30
5226;DHT22;2632;51.666;7.146;2023-03-11T10:49:48;25.80;25.80
5226;DHT22;2632;51.666;7.146;2023-03-11T10:52:16;25.30;25.60
5226;DHT22;2632;51.666;7.146;2023-03-11T10:54:47;26.80;26.10
5226;DHT22;2632;51.666;7.146;2023-03-11T10:57:35;27.10;25.00
5226;DHT22;2632;51.666;7.146;2023-03-11T11:00:07;24.40;26.20
5226;DHT22;2632;51.666;7.146;2023-03-11T11:02:55;24.40;28.80
5226;DHT22;2632;51.666;7.146;2023-03-11T11:05:29;19.40;29.80
5226;DHT22;2632;51.666;7.146;2023-03-11T11:08:15;16.00;34.40
5226;DHT22;2632;51.666;7.146;2023-03-11T11:10:54;13.10;38.30
5226;DHT22;2632;51.666;7.146;2023-03-11T11:13:23;16.50;39.40
5226;DHT22;2632;51.666;7.146;2023-03-11T11:18:51;13.00;35.90
5226;DHT22;2632;51.666;7.146;2023-03-11T11:21:33;17.40;33.60
5226;DHT22;2632;51.666;7.146;2023-03-11T11:24:19;20.00;29.30
5226;DHT22;2632;51.666;7.146;2023-03-11T11:29:59;19.30;30.00
5226;DHT22;2632;51.666;7.146;2023-03-11T11:32:27;21.30;29.60
5226;DHT22;2632;51.666;7.146;2023-03-11T11:35:02;22.60;29.10
5226;DHT22;2632;51.666;7.146;2023-03-11T11:37:35;22.60;27.40
5226;DHT22;2632;51.666;7.146;2023-03-11T11:42:38;23.80;27.40
5226;DHT22;2632;51.666;7.146;2023-03-11T11:47:50;24.30;26.90
5226;DHT22;2632;51.666;7.146;2023-03-11T11:50:35;25.90;25.80
5226;DHT22;2632;51.666;7.146;2023-03-11T11:53:38;25.30;26.10
5226;DHT22;2632;51.666;7.146;2023-03-11T11:56:07;25.70;24.30
5226;DHT22;2632;51.666;7.146;2023-03-11T11:58:34;26.30;25.50
5226;DHT22;2632;51.666;7.146;2023-03-11T12:06:39;23.20;25.50
5226;DHT22;2632;51.666;7.146;2023-03-11T12:09:33;23.60;25.90
5226;DHT22;2632;51.666;7.146;2023-03-11T12:12:36;22.10;27.50
5226;DHT22;2632;51.666;7.146;2023-03-11T12:15:23;21.80;28.50
5226;DHT22;2632;51.666;7.146;2023-03-11T12:17:55;18.70;28.60
5226;DHT22;2632;51.666;7.146;2023-03-11T12:20:29;16.00;31.60
5226;DHT22;2632;51.666;7.146;2023-03-11T12:23:16;14.30;34.70
5226;DHT22;2632;51.666;7.146;2023-03-11T12:31:08;21.80;27.10
5226;DHT22;2632;51.666;7.146;2023-03-11T12:33:53;18.00;29.30
5226;DHT22;2632;51.666;7.146;2023-03-11T12:36:23;16.10;32.50
5226;DHT22;2632;51.666;7.146;2023-03-11T12:38:52;15.30;34.20
5226;DHT22;2632;51.666;7.146;2023-03-11T12:41:36;14.70;34.60
5226;DHT22;2632;51.666;7.146;2023-03-11T12:44:26;14.20;35.00
5226;DHT22;2632;51.666;7.146;2023-03-11T12:49:24;14.70;34.60
5226;DHT22;2632;51.666;7.146;2023-03-11T12:54:42;12.50;37.90
5226;DHT22;2632;51.666;7.146;2023-03-11T13:03:05;13.50;34.20
5226;DHT22;2632;51.666;7.146;2023-03-11T13:08:50;12.70;37.80
5226;DHT22;2632;51.666;7.146;2023-03-11T13:16:42;17.20;32.40
5226;DHT22;2632;51.666;7.146;2023-03-11T13:19:32;17.80;31.30
5226;DHT22;2632;51.666;7.146;2023-03-11T13:22:01;17.60;32.00
5226;DHT22;2632;51.666;7.146;2023-03-11T13:38:00;17.00;32.60
5226;DHT22;2632;51.666;7.146;2023-03-11T13:40:39;17.20;31.20
5226;DHT22;2632;51.666;7.146;2023-03-11T13:43:17;16.70;32.10
5226;DHT22;2632;51.666;7.146;2023-03-11T13:48:29;14.90;32.20
5226;DHT22;2632;51.666;7.146;2023-03-11T13:57:10;18.00;29.40
5226;DHT22;2632;51.666;7.146;2023-03-11T13:59:37;17.60;29.80
5226;DHT22;2632;51.666;7.146;2023-03-11T14:04:35;17.80;29.70
5226;DHT22;2632;51.666;7.146;2023-03-11T14:09:46;17.30;29.20
5226;DHT22;2632;51.666;7.146;2023-03-11T14:12:13;16.90;30.20
5226;DHT22;2632;51.666;7.146;2023-03-11T14:14:56;16.50;31.10
5226;DHT22;2632;51.666;7.146;2023-03-11T14:17:24;16.20;31.90
5226;DHT22;2632;51.666;7.146;2023-03-11T14:20:03;15.50;32.30
5226;DHT22;2632;51.666;7.146;2023-03-11T14:22:32;14.90;31.60
5226;DHT22;2632;51.666;7.146;2023-03-11T14:25:02;14.30;32.60
5226;DHT22;2632;51.666;7.146;2023-03-11T14:27:30;13.80;32.40
5226;DHT22;2632;51.666;7.146;2023-03-11T14:29:57;13.10;35.90
5226;DHT22;2632;51.666;7.146;2023-03-11T14:32:25;13.40;34.70
5226;DHT22;2632;51.666;7.146;2023-03-11T14:34:53;13.10;36.60
5226;DHT22;2632;51.666;7.146;2023-03-11T14:37:31;13.00;36.00
5226;DHT22;2632;51.666;7.146;2023-03-11T14:39:58;13.10;35.30
5226;DHT22;2632;51.666;7.146;2023-03-11T14:42:33;12.70;34.90
5226;DHT22;2632;51.666;7.146;2023-03-11T14:48:03;13.30;37.80
5226;DHT22;2632;51.666;7.146;2023-03-11T14:50:32;12.80;36.30
5226;DHT22;2632;51.666;7.146;2023-03-11T14:53:23;12.40;36.40
5226;DHT22;2632;51.666;7.146;2023-03-11T14:55:55;11.50;37.30
5226;DHT22;2632;51.666;7.146;2023-03-11T14:58:27;11.30;39.10
5226;DHT22;2632;51.666;7.146;2023-03-11T15:01:00;11.20;39.20
5226;DHT22;2632;51.666;7.146;2023-03-11T15:03:29;11.20;39.70
5226;DHT22;2632;51.666;7.146;2023-03-11T15:06:06;10.70;39.30
5226;DHT22;2632;51.666;7.146;2023-03-11T15:11:24;10.70;39.30
5226;DHT22;2632;51.666;7.146;2023-03-11T15:14:12;10.60;39.60
5226;DHT22;2632;51.666;7.146;2023-03-11T15:16:41;10.40;40.50
5226;DHT22;2632;51.666;7.146;2023-03-11T15:19:23;10.20;40.40
5226;DHT22;2632;51.666;7.146;2023-03-11T15:21:58;9.90;40.60
5226;DHT22;2632;51.666;7.146;2023-03-11T15:24:28;9.80;39.50
5226;DHT22;2632;51.666;7.146;2023-03-11T15:27:07;9.70;40.90
5226;DHT22;2632;51.666;7.146;2023-03-11T15:29:50;9.70;41.10
5226;DHT22;2632;51.666;7.146;2023-03-11T15:32:37;9.50;41.60
5226;DHT22;2632;51.666;7.146;2023-03-11T15:37:37;9.30;41.80
5226;DHT22;2632;51.666;7.146;2023-03-11T15:40:25;9.00;42.30
5226;DHT22;2632;51.666;7.146;2023-03-11T15:43:44;9.10;41.70
5226;DHT22;2632;51.666;7.146;2023-03-11T15:46:12;9.00;42.40
5226;DHT22;2632;51.666;7.146;2023-03-11T15:48:38;8.80;41.70
5226;DHT22;2632;51.666;7.146;2023-03-11T15:51:05;8.70;41.40
5226;DHT22;2632;51.666;7.146;2023-03-11T15:53:32;8.50;42.80
5226;DHT22;2632;51.666;7.146;2023-03-11T15:56:05;8.50;43.20
5226;DHT22;2632;51.666;7.146;2023-03-11T15:58:36;8.50;43.30
5226;DHT22;2632;51.666;7.146;2023-03-11T16:01:03;8.60;43.80
5226;DHT22;2632;51.666;7.146;2023-03-11T16:03:30;8.70;44.10
5226;DHT22;2632;51.666;7.146;2023-03-11T16:05:57;8.40;44.20
5226;DHT22;2632;51.666;7.146;2023-03-11T16:08:24;8.40;45.10
5226;DHT22;2632;51.666;7.146;2023-03-11T16:10:50;8.40;45.10
5226;DHT22;2632;51.666;7.146;2023-03-11T16:13:17;8.20;45.10
5226;DHT22;2632;51.666;7.146;2023-03-11T16:15:43;8.30;45.80
5226;DHT22;2632;51.666;7.146;2023-03-11T16:18:12;8.10;45.10
5226;DHT22;2632;51.666;7.146;2023-03-11T16:20:45;8.00;46.30
5226;DHT22;2632;51.666;7.146;2023-03-11T16:23:21;7.90;45.90
5226;DHT22;2632;51.666;7.146;2023-03-11T16:25:49;7.90;46.80
5226;DHT22;2632;51.666;7.146;2023-03-11T16:28:16;7.80;46.70
5226;DHT22;2632;51.666;7.146;2023-03-11T16:30:43;7.80;46.80
5226;DHT22;2632;51.666;7.146;2023-03-11T16:33:10;7.80;46.10
5226;DHT22;2632;51.666;7.146;2023-03-11T16:35:37;7.50;46.20
5226;DHT22;2632;51.666;7.146;2023-03-11T16:38:04;7.40;47.20
5226;DHT22;2632;51.666;7.146;2023-03-11T16:40:32;7.40;48.30
5226;DHT22;2632;51.666;7.146;2023-03-11T16:43:01;7.30;47.90
5226;DHT22;2632;51.666;7.146;2023-03-11T16:45:28;7.10;47.60
5226;DHT22;2632;51.666;7.146;2023-03-11T16:47:55;7.00;48.40
5226;DHT22;2632;51.666;7.146;2023-03-11T16:50:22;6.90;48.70
5226;DHT22;2632;51.666;7.146;2023-03-11T16:52:53;6.80;49.00
5226;DHT22;2632;51.666;7.146;2023-03-11T16:55:22;6.90;49.00
5226;DHT22;2632;51.666;7.146;2023-03-11T16:57:49;6.90;48.70
5226;DHT22;2632;51.666;7.146;2023-03-11T17:00:16;6.70;49.10
5226;DHT22;2632;51.666;7.146;2023-03-11T17:02:43;6.70;49.90
5226;DHT22;2632;51.666;7.146;2023-03-11T17:05:10;6.60;50.40
5226;DHT22;2632;51.666;7.146;2023-03-11T17:07:37;6.40;51.00
5226;DHT22;2632;51.666;7.146;2023-03-11T17:10:06;6.40;51.30
5226;DHT22;2632;51.666;7.146;2023-03-11T17:12:33;6.30;52.40
5226;DHT22;2632;51.666;7.146;2023-03-11T17:15:03;6.30;52.60
5226;DHT22;2632;51.666;7.146;2023-03-11T17:17:30;6.20;53.10
5226;DHT22;2632;51.666;7.146;2023-03-11T17:19:56;6.10;53.50
5226;DHT22;2632;51.666;7.146;2023-03-11T17:22:23;6.00;55.40
5226;DHT22;2632;51.666;7.146;2023-03-11T17:24:49;5.90;56.30
5226;DHT22;2632;51.666;7.146;2023-03-11T17:27:16;5.80;55.70
5226;DHT22;2632;51.666;7.146;2023-03-11T17:29:43;5.70;57.40
5226;DHT22;2632;51.666;7.146;2023-03-11T17:32:09;5.60;57.60
5226;DHT22;2632;51.666;7.146;2023-03-11T17:34:42;5.50;61.90
5226;DHT22;2632;51.666;7.146;2023-03-11T17:37:09;5.50;61.60
5226;DHT22;2632;51.666;7.146;2023-03-11T17:39:35;5.30;69.20
5226;DHT22;2632;51.666;7.146;2023-03-11T17:42:02;5.10;73.30
5226;DHT22;2632;51.666;7.146;2023-03-11T17:44:29;4.90;79.10
5226;DHT22;2632;51.666;7.146;2023-03-11T17:47:15;4.80;84.10
5226;DHT22;2632;51.666;7.146;2023-03-11T17:49:43;4.70;86.90
5226;DHT22;2632;51.666;7.146;2023-03-11T17:52:09;4.50;90.10
5226;DHT22;2632;51.666;7.146;2023-03-11T17:54:38;4.50;92.20
5226;DHT22;2632;51.666;7.146;2023-03-11T17:57:05;4.40;93.80
5226;DHT22;2632;51.666;7.146;2023-03-11T17:59:32;4.30;95.20
5226;DHT22;2632;51.666;7.146;2023-03-11T18:01:58;4.10;95.50
5226;DHT22;2632;51.666;7.146;2023-03-11T18:04:25;4.00;97.80
5226;DHT22;2632;51.666;7.146;2023-03-11T18:06:53;3.80;96.90